Time;durP1;ratioP1;P1;durP2;ratioP2;P2;SDS_P1;SDS_P2;PMS_P1;PMS_P2;Temp;Humidity;BMP_temperature;BMP_pressure;BME280_temperature;BME280_humidity;BME280_pressure;Samples;Min_cycle;Max_cycle;Signal;HPM_P1;HPM_P2
2021/05/14 00:00:46;;;;;;;2.00;1.90;;;;;;;;;;4971415;28;20192;-83
2021/05/14 00:03:12;;;;;;;2.20;2.10;;;;;;;;;;4958813;28;20192;-83
2021/05/14 00:05:38;;;;;;;2.37;2.20;;;;;;;;;;4968732;28;20181;-84
2021/05/14 00:08:04;;;;;;;2.17;2.00;;;;;;;;;;4973082;28;20195;-84
2021/05/14 00:10:30;;;;;;;2.47;2.13;;;;;;;;;;4971448;28;20188;-84
2021/05/14 00:12:57;;;;;;;2.50;2.30;;;;;;;;;;4970012;28;20241;-83
2021/05/14 00:15:23;;;;;;;2.53;2.33;;;;;;;;;;4976284;28;20512;-84
2021/05/14 00:17:50;;;;;;;2.43;2.10;;;;;;;;;;4960504;28;20566;-84
2021/05/14 00:20:17;;;;;;;2.30;2.10;;;;;;;;;;4968970;28;20184;-83
2021/05/14 00:22:43;;;;;;;2.63;2.43;;;;;;;;;;4969527;28;20184;-83
2021/05/14 00:25:09;;;;;;;2.63;2.40;;;;;;;;;;4971410;28;20189;-84
2021/05/14 00:27:35;;;;;;;2.30;2.10;;;;;;;;;;4992303;28;20655;-83
2021/05/14 00:30:02;;;;;;;2.40;2.20;;;;;;;;;;4980547;28;20187;-83
2021/05/14 00:32:28;;;;;;;2.33;2.17;;;;;;;;;;4968244;28;20504;-83
2021/05/14 00:34:54;;;;;;;2.27;2.17;;;;;;;;;;4980926;28;20736;-83
2021/05/14 00:37:20;;;;;;;2.97;2.47;;;;;;;;;;4959274;28;20211;-83
2021/05/14 00:39:46;;;;;;;2.30;2.10;;;;;;;;;;4971233;28;20180;-84
2021/05/14 00:42:12;;;;;;;2.17;1.70;;;;;;;;;;4965166;28;20554;-83
2021/05/14 00:44:39;;;;;;;2.20;2.10;;;;;;;;;;4970407;28;20186;-83
2021/05/14 00:47:07;;;;;;;2.47;2.30;;;;;;;;;;4963067;28;20181;-84
2021/05/14 00:49:33;;;;;;;2.60;2.40;;;;;;;;;;4966891;28;20184;-84
2021/05/14 00:52:00;;;;;;;2.53;2.33;;;;;;;;;;4967151;28;20233;-83
2021/05/14 00:54:27;;;;;;;2.40;2.20;;;;;;;;;;4969556;28;20199;-83
2021/05/14 00:56:53;;;;;;;2.60;2.33;;;;;;;;;;4972234;28;20184;-84
2021/05/14 00:59:19;;;;;;;3.03;2.30;;;;;;;;;;4970864;28;20191;-83
2021/05/14 01:01:46;;;;;;;2.83;2.63;;;;;;;;;;4969574;28;20530;-84
2021/05/14 01:04:12;;;;;;;2.60;2.40;;;;;;;;;;4973109;28;20284;-83
2021/05/14 01:06:38;;;;;;;2.60;2.40;;;;;;;;;;4974531;28;20184;-83
2021/05/14 01:09:04;;;;;;;2.67;2.20;;;;;;;;;;4971656;28;20184;-84
2021/05/14 01:11:30;;;;;;;2.50;2.30;;;;;;;;;;4971593;28;20685;-83
2021/05/14 01:13:57;;;;;;;2.43;2.23;;;;;;;;;;5065117;28;20227;-83
2021/05/14 01:16:26;;;;;;;2.67;2.47;;;;;;;;;;4970616;28;20233;-84
2021/05/14 01:18:52;;;;;;;3.93;2.80;;;;;;;;;;4968554;28;20565;-83
2021/05/14 01:21:18;;;;;;;2.50;2.30;;;;;;;;;;4970746;28;20238;-83
2021/05/14 01:23:44;;;;;;;2.93;2.73;;;;;;;;;;4953521;28;20177;-83
2021/05/14 01:26:15;;;;;;;2.80;2.43;;;;;;;;;;4972816;28;20188;-83
2021/05/14 01:28:41;;;;;;;3.00;2.80;;;;;;;;;;4969632;28;20188;-84
2021/05/14 01:31:08;;;;;;;2.70;2.50;;;;;;;;;;4991439;28;20172;-83
2021/05/14 01:33:34;;;;;;;2.73;2.53;;;;;;;;;;4967342;28;20199;-83
2021/05/14 01:36:00;;;;;;;2.57;2.37;;;;;;;;;;5012389;28;20176;-83
2021/05/14 01:38:27;;;;;;;2.57;2.37;;;;;;;;;;4971786;28;20284;-83
2021/05/14 01:40:53;;;;;;;2.73;2.53;;;;;;;;;;4964298;28;20221;-84
2021/05/14 01:43:19;;;;;;;2.90;2.70;;;;;;;;;;4969482;28;20184;-83
2021/05/14 01:45:45;;;;;;;3.67;3.37;;;;;;;;;;4966030;28;20246;-83
2021/05/14 01:48:11;;;;;;;3.40;3.10;;;;;;;;;;4981126;28;20599;-83
2021/05/14 01:50:38;;;;;;;3.60;3.23;;;;;;;;;;4969674;28;20481;-83
2021/05/14 01:53:04;;;;;;;2.93;2.63;;;;;;;;;;4968837;28;20195;-83
2021/05/14 01:55:30;;;;;;;2.90;2.70;;;;;;;;;;4970236;28;20180;-83
2021/05/14 01:57:56;;;;;;;3.17;2.97;;;;;;;;;;4968575;28;20191;-83
2021/05/14 02:00:23;;;;;;;2.93;2.73;;;;;;;;;;4976936;28;20533;-83
2021/05/14 02:02:49;;;;;;;3.00;2.80;;;;;;;;;;4967572;28;20278;-83
2021/05/14 02:05:15;;;;;;;3.23;2.93;;;;;;;;;;4969213;28;20725;-83
2021/05/14 02:07:41;;;;;;;2.70;2.50;;;;;;;;;;4963749;28;20635;-83
2021/05/14 02:10:07;;;;;;;3.43;3.13;;;;;;;;;;4972669;28;20180;-83
2021/05/14 02:12:33;;;;;;;3.40;3.10;;;;;;;;;;4959679;28;20176;-84
2021/05/14 02:14:59;;;;;;;3.50;3.20;;;;;;;;;;4963387;28;20268;-83
2021/05/14 02:17:25;;;;;;;2.90;2.70;;;;;;;;;;4964724;28;20184;-83
2021/05/14 02:19:53;;;;;;;3.73;3.43;;;;;;;;;;4960876;28;20253;-83
2021/05/14 02:22:19;;;;;;;3.47;3.17;;;;;;;;;;4999626;28;20173;-83
2021/05/14 02:24:45;;;;;;;4.20;3.00;;;;;;;;;;5028510;28;20584;-83
2021/05/14 02:27:12;;;;;;;3.63;3.17;;;;;;;;;;4967549;28;20224;-84
2021/05/14 02:29:38;;;;;;;3.40;3.10;;;;;;;;;;4988700;28;20203;-83
2021/05/14 02:32:05;;;;;;;2.90;2.70;;;;;;;;;;4968128;28;20584;-83
2021/05/14 02:34:31;;;;;;;3.37;3.07;;;;;;;;;;4969675;28;20726;-83
2021/05/14 02:36:57;;;;;;;3.23;2.93;;;;;;;;;;4967687;28;20203;-83
2021/05/14 02:39:23;;;;;;;3.73;3.43;;;;;;;;;;4964367;28;20188;-83
2021/05/14 02:41:49;;;;;;;3.40;3.10;;;;;;;;;;4960140;28;20271;-83
2021/05/14 02:44:16;;;;;;;3.13;2.90;;;;;;;;;;5017423;28;20198;-84
2021/05/14 02:46:42;;;;;;;3.43;3.13;;;;;;;;;;4968343;28;20215;-84
2021/05/14 02:49:09;;;;;;;3.60;3.30;;;;;;;;;;4957365;28;20190;-84
2021/05/14 02:51:35;;;;;;;4.00;3.60;;;;;;;;;;4962500;28;20233;-83
2021/05/14 02:54:01;;;;;;;3.90;3.60;;;;;;;;;;4963072;28;20226;-84
2021/05/14 02:56:31;;;;;;;3.40;3.10;;;;;;;;;;4977665;28;20189;-84
2021/05/14 02:58:57;;;;;;;3.20;3.00;;;;;;;;;;5004150;28;20271;-84
2021/05/14 03:01:23;;;;;;;3.80;3.50;;;;;;;;;;4969740;28;20192;-83
2021/05/14 03:03:49;;;;;;;3.53;3.23;;;;;;;;;;4968272;28;20295;-83
2021/05/14 03:06:16;;;;;;;3.67;3.38;;;;;;;;;;4968992;28;20086;-84
2021/05/14 03:08:42;;;;;;;3.33;3.03;;;;;;;;;;4966662;28;20254;-84
2021/05/14 03:11:08;;;;;;;3.27;2.97;;;;;;;;;;4969624;28;20676;-83
2021/05/14 03:13:34;;;;;;;3.23;2.93;;;;;;;;;;4960747;28;20229;-84
2021/05/14 03:16:00;;;;;;;3.20;2.90;;;;;;;;;;4970426;28;20279;-83
2021/05/14 03:18:26;;;;;;;3.27;2.80;;;;;;;;;;4961492;28;20472;-83
2021/05/14 03:20:54;;;;;;;3.30;3.00;;;;;;;;;;4969718;28;20504;-83
2021/05/14 03:23:20;;;;;;;3.23;2.93;;;;;;;;;;5023533;28;20199;-83
2021/05/14 03:25:46;;;;;;;2.93;2.73;;;;;;;;;;4969310;28;20726;-84
2021/05/14 03:28:12;;;;;;;3.73;3.43;;;;;;;;;;4973266;28;20184;-83
2021/05/14 03:30:39;;;;;;;3.37;3.13;;;;;;;;;;4971748;28;20188;-83
2021/05/14 03:33:05;;;;;;;3.50;3.20;;;;;;;;;;4971365;28;20366;-83
2021/05/14 03:35:31;;;;;;;3.03;2.83;;;;;;;;;;4972379;28;20261;-83
2021/05/14 03:37:57;;;;;;;3.53;3.30;;;;;;;;;;4971861;28;20269;-83
2021/05/14 03:42:55;;;;;;;4.37;3.97;;;;;;;;;;4972715;28;20223;-83
2021/05/14 03:45:21;;;;;;;3.30;3.00;;;;;;;;;;4972183;28;20214;-83
2021/05/14 03:47:47;;;;;;;3.23;2.93;;;;;;;;;;4972724;28;20699;-84
2021/05/14 03:50:14;;;;;;;3.53;3.23;;;;;;;;;;4963898;28;20173;-84
2021/05/14 03:52:40;;;;;;;3.40;3.10;;;;;;;;;;5006766;28;20217;-83
2021/05/14 03:55:07;;;;;;;3.80;3.37;;;;;;;;;;4969797;28;20250;-83
2021/05/14 03:57:33;;;;;;;3.53;3.23;;;;;;;;;;4969935;28;20179;-83
2021/05/14 03:59:59;;;;;;;3.30;3.00;;;;;;;;;;4982350;28;20661;-83
2021/05/14 04:02:25;;;;;;;3.03;2.83;;;;;;;;;;4975838;28;20612;-83
2021/05/14 04:04:52;;;;;;;3.43;3.13;;;;;;;;;;4970886;28;20184;-84
2021/05/14 04:07:19;;;;;;;3.53;3.23;;;;;;;;;;4971017;28;20192;-83
2021/05/14 04:09:59;;;;;;;3.67;3.30;;;;;;;;;;4981516;28;20183;-84
2021/05/14 04:15:15;;;;;;;3.30;3.00;;;;;;;;;;4965418;28;20266;-83
2021/05/14 04:17:42;;;;;;;4.23;3.90;;;;;;;;;;4993776;28;20635;-83
2021/05/14 04:20:09;;;;;;;3.70;3.40;;;;;;;;;;4977486;28;20708;-83
2021/05/14 04:22:35;;;;;;;4.90;4.50;;;;;;;;;;4968398;28;20275;-83
2021/05/14 04:25:01;;;;;;;3.70;3.23;;;;;;;;;;4969324;28;20645;-83
2021/05/14 04:27:27;;;;;;;3.63;3.33;;;;;;;;;;4976764;28;20549;-83
2021/05/14 04:29:53;;;;;;;3.70;3.40;;;;;;;;;;4973664;28;20700;-83
2021/05/14 04:32:19;;;;;;;3.63;3.33;;;;;;;;;;4972900;28;20271;-83
2021/05/14 04:34:45;;;;;;;3.40;3.10;;;;;;;;;;4974254;28;20634;-83
2021/05/14 04:37:12;;;;;;;3.77;3.43;;;;;;;;;;4971349;28;20219;-83
2021/05/14 04:39:38;;;;;;;3.37;3.07;;;;;;;;;;4971820;28;20188;-83
2021/05/14 04:42:05;;;;;;;3.50;3.20;;;;;;;;;;4972783;28;20245;-83
2021/05/14 04:44:31;;;;;;;3.70;3.40;;;;;;;;;;4975584;28;20218;-83
2021/05/14 04:46:57;;;;;;;3.73;3.43;;;;;;;;;;4984548;28;20611;-83
2021/05/14 04:49:23;;;;;;;3.60;3.30;;;;;;;;;;5017875;28;20194;-83
2021/05/14 04:51:49;;;;;;;3.70;3.40;;;;;;;;;;4967119;28;20250;-83
2021/05/14 04:54:15;;;;;;;3.97;3.50;;;;;;;;;;4969477;28;20235;-83
2021/05/14 04:56:41;;;;;;;3.27;2.97;;;;;;;;;;4971578;28;20701;-83
2021/05/14 04:59:07;;;;;;;3.10;2.90;;;;;;;;;;4973872;28;20631;-83
2021/05/14 05:01:34;;;;;;;3.50;3.20;;;;;;;;;;4977338;28;20229;-83
2021/05/14 05:04:00;;;;;;;2.93;2.73;;;;;;;;;;4972281;28;20688;-83
2021/05/14 05:06:26;;;;;;;3.07;2.77;;;;;;;;;;4973940;28;20179;-83
2021/05/14 05:08:52;;;;;;;3.13;2.93;;;;;;;;;;4970288;28;20191;-83
2021/05/14 05:11:18;;;;;;;3.13;2.83;;;;;;;;;;5027511;28;20234;-83
2021/05/14 05:13:44;;;;;;;3.40;3.10;;;;;;;;;;4970572;28;20246;-83
2021/05/14 05:16:10;;;;;;;3.30;3.07;;;;;;;;;;4978194;28;20275;-83
2021/05/14 05:18:37;;;;;;;3.40;3.10;;;;;;;;;;4972703;28;20188;-82
2021/05/14 05:21:03;;;;;;;3.80;3.40;;;;;;;;;;4985881;28;20178;-82
2021/05/14 05:23:30;;;;;;;3.13;2.90;;;;;;;;;;5042404;28;20186;-82
2021/05/14 05:25:56;;;;;;;2.87;2.50;;;;;;;;;;4987316;28;20196;-83
2021/05/14 05:28:23;;;;;;;3.33;3.03;;;;;;;;;;4972504;28;20184;-82
2021/05/14 05:30:49;;;;;;;3.43;3.23;;;;;;;;;;4976359;28;20658;-82
2021/05/14 05:33:16;;;;;;;3.50;3.20;;;;;;;;;;4968668;28;20438;-82
2021/05/14 05:35:42;;;;;;;3.13;2.93;;;;;;;;;;4972115;28;20266;-83
2021/05/14 05:38:18;;;;;;;3.03;2.83;;;;;;;;;;4968191;28;20176;-82
2021/05/14 05:40:44;;;;;;;2.70;2.50;;;;;;;;;;4972951;28;20175;-82
2021/05/14 05:43:12;;;;;;;2.77;2.57;;;;;;;;;;4970216;28;20181;-82
2021/05/14 05:45:38;;;;;;;3.43;3.13;;;;;;;;;;4966541;28;20478;-82
2021/05/14 05:48:04;;;;;;;3.30;3.00;;;;;;;;;;5025179;28;20279;-82
2021/05/14 05:50:30;;;;;;;2.97;2.77;;;;;;;;;;4969788;28;20187;-82
2021/05/14 05:52:56;;;;;;;2.83;2.63;;;;;;;;;;5055402;28;20172;-83
2021/05/14 05:55:22;;;;;;;3.57;2.70;;;;;;;;;;5010329;28;20334;-83
2021/05/14 05:57:49;;;;;;;3.20;2.90;;;;;;;;;;4970281;28;20176;-83
2021/05/14 06:00:15;;;;;;;3.70;3.10;;;;;;;;;;5016189;28;20210;-83
2021/05/14 06:02:42;;;;;;;2.73;2.53;;;;;;;;;;5005770;28;20212;-83
2021/05/14 06:05:09;;;;;;;2.93;2.73;;;;;;;;;;4963316;28;20202;-83
2021/05/14 06:07:35;;;;;;;3.35;3.05;;;;;;;;;;4971478;28;20430;-83
2021/05/14 06:10:02;;;;;;;3.67;3.37;;;;;;;;;;5020741;28;20184;-83
2021/05/14 06:12:28;;;;;;;2.77;2.57;;;;;;;;;;4973590;28;20657;-83
2021/05/14 06:14:54;;;;;;;3.13;2.83;;;;;;;;;;4971432;28;20523;-83
2021/05/14 06:17:20;;;;;;;3.27;2.80;;;;;;;;;;4976963;28;20615;-84
2021/05/14 06:19:55;;;;;;;3.20;2.87;;;;;;;;;;4994914;28;20187;-82
2021/05/14 06:22:21;;;;;;;2.87;2.67;;;;;;;;;;4999124;28;20223;-82
2021/05/14 06:24:48;;;;;;;3.03;2.73;;;;;;;;;;4994705;28;20538;-84
2021/05/14 06:27:14;;;;;;;2.87;2.67;;;;;;;;;;4971288;28;20259;-82
2021/05/14 06:29:46;;;;;;;3.53;2.80;;;;;;;;;;5011903;28;20227;-83
2021/05/14 06:32:12;;;;;;;3.40;3.10;;;;;;;;;;4969665;28;20195;-83
2021/05/14 06:34:38;;;;;;;3.37;3.07;;;;;;;;;;4968820;28;20203;-83
2021/05/14 06:37:04;;;;;;;3.40;3.10;;;;;;;;;;4968750;28;20183;-82
2021/05/14 06:39:30;;;;;;;8.07;3.27;;;;;;;;;;4971304;28;20596;-84
2021/05/14 06:41:56;;;;;;;3.17;2.97;;;;;;;;;;4967698;28;20207;-83
2021/05/14 06:44:22;;;;;;;3.20;2.90;;;;;;;;;;4970177;28;20257;-83
2021/05/14 06:46:48;;;;;;;3.63;3.33;;;;;;;;;;5001267;28;20223;-84
2021/05/14 06:49:14;;;;;;;3.60;3.30;;;;;;;;;;4972070;28;20194;-83
2021/05/14 06:51:40;;;;;;;4.17;3.00;;;;;;;;;;4986905;28;20289;-84
2021/05/14 06:54:07;;;;;;;3.80;3.27;;;;;;;;;;4963964;28;20228;-84
2021/05/14 06:56:33;;;;;;;3.77;3.47;;;;;;;;;;4972002;28;20561;-83
2021/05/14 06:58:59;;;;;;;4.33;3.63;;;;;;;;;;5004451;28;20180;-82
2021/05/14 07:01:25;;;;;;;5.20;4.70;;;;;;;;;;4972008;28;20184;-83
2021/05/14 07:03:51;;;;;;;3.53;3.23;;;;;;;;;;4970417;28;20192;-82
2021/05/14 07:06:18;;;;;;;4.13;3.83;;;;;;;;;;5001561;28;20180;-83
2021/05/14 07:08:45;;;;;;;3.87;3.57;;;;;;;;;;4965637;28;20181;-82
2021/05/14 07:11:11;;;;;;;3.73;3.37;;;;;;;;;;4975383;28;20305;-82
2021/05/14 07:13:37;;;;;;;3.40;3.10;;;;;;;;;;4982849;28;20226;-83
2021/05/14 07:16:03;;;;;;;5.00;4.60;;;;;;;;;;4971786;28;20272;-84
2021/05/14 07:18:32;;;;;;;5.23;4.77;;;;;;;;;;4974633;28;20188;-82
2021/05/14 07:20:58;;;;;;;5.07;4.57;;;;;;;;;;5013535;28;20187;-82
2021/05/14 07:23:24;;;;;;;4.50;4.20;;;;;;;;;;5000779;28;20256;-82
2021/05/14 07:25:50;;;;;;;5.20;4.77;;;;;;;;;;4983234;28;20275;-82
2021/05/14 07:28:16;;;;;;;5.80;5.30;;;;;;;;;;5005970;28;20190;-82
2021/05/14 07:30:42;;;;;;;5.93;5.43;;;;;;;;;;4971585;28;20187;-80
2021/05/14 07:33:10;;;;;;;5.77;5.27;;;;;;;;;;4981309;28;20203;-87
2021/05/14 07:35:36;;;;;;;6.23;5.70;;;;;;;;;;4968616;28;20176;-86
2021/05/14 07:38:02;;;;;;;6.20;5.70;;;;;;;;;;4969897;28;20172;-86
2021/05/14 07:40:28;;;;;;;6.83;6.23;;;;;;;;;;4970912;28;20611;-85
2021/05/14 07:42:54;;;;;;;7.10;6.43;;;;;;;;;;4990848;28;20239;-83
2021/05/14 07:45:20;;;;;;;6.30;5.73;;;;;;;;;;4981239;28;20209;-79
2021/05/14 07:47:46;;;;;;;7.23;6.30;;;;;;;;;;4971360;28;20191;-83
2021/05/14 07:50:13;;;;;;;7.40;6.70;;;;;;;;;;4978571;28;20203;-81
2021/05/14 07:52:39;;;;;;;7.30;6.67;;;;;;;;;;4970715;28;20234;-82
2021/05/14 07:55:06;;;;;;;7.47;6.80;;;;;;;;;;4985575;28;20619;-81
2021/05/14 07:57:32;;;;;;;7.53;6.87;;;;;;;;;;4975332;28;20184;-82
2021/05/14 07:59:59;;;;;;;7.60;7.00;;;;;;;;;;4964498;28;20187;-81
2021/05/14 08:02:25;;;;;;;8.57;7.87;;;;;;;;;;4970708;28;20547;-82
2021/05/14 08:04:51;;;;;;;9.13;7.90;;;;;;;;;;4975389;28;20631;-82
2021/05/14 08:07:19;;;;;;;9.17;8.37;;;;;;;;;;4968504;28;20188;-81
2021/05/14 08:09:45;;;;;;;8.70;7.90;;;;;;;;;;4963060;28;20654;-82
2021/05/14 08:12:11;;;;;;;8.93;8.03;;;;;;;;;;4965053;28;20184;-84
2021/05/14 08:14:37;;;;;;;11.30;10.20;;;;;;;;;;4970439;28;20249;-82
2021/05/14 08:17:03;;;;;;;10.23;9.13;;;;;;;;;;4971453;28;20621;-81
2021/05/14 08:19:29;;;;;;;10.53;9.43;;;;;;;;;;4972230;28;20179;-81
2021/05/14 08:21:56;;;;;;;11.27;10.27;;;;;;;;;;4995393;28;20229;-81
2021/05/14 08:24:22;;;;;;;9.73;8.83;;;;;;;;;;4971492;28;20179;-81
2021/05/14 08:26:48;;;;;;;10.03;9.07;;;;;;;;;;4968669;28;20260;-82
2021/05/14 08:29:14;;;;;;;9.40;8.50;;;;;;;;;;4969138;28;20195;-81
2021/05/14 08:31:40;;;;;;;10.20;9.30;;;;;;;;;;4970319;28;20192;-81
2021/05/14 08:34:12;;;;;;;8.97;8.07;;;;;;;;;;4970871;28;20302;-80
2021/05/14 08:36:38;;;;;;;10.50;8.20;;;;;;;;;;4971800;28;20176;-80
2021/05/14 08:39:05;;;;;;;280.17;38.95;;;;;;;;;;4971499;28;20434;-81
2021/05/14 08:41:31;;;;;;;233.70;30.97;;;;;;;;;;4972230;28;20180;-81
2021/05/14 08:43:57;;;;;;;223.47;32.13;;;;;;;;;;4956181;28;20187;-81
2021/05/14 08:46:26;;;;;;;200.00;28.53;;;;;;;;;;4968656;28;20219;-81
2021/05/14 08:48:56;;;;;;;194.33;23.10;;;;;;;;;;4968823;28;20188;-81
2021/05/14 08:51:27;;;;;;;134.80;21.90;;;;;;;;;;4970077;28;20270;-81
2021/05/14 08:53:53;;;;;;;178.87;23.07;;;;;;;;;;4970290;28;20250;-83
2021/05/14 08:56:19;;;;;;;103.63;18.20;;;;;;;;;;4971848;28;20188;-83
2021/05/14 08:58:46;;;;;;;116.33;16.73;;;;;;;;;;4974120;28;20180;-80
2021/05/14 09:01:12;;;;;;;111.87;19.90;;;;;;;;;;4983783;28;20255;-82
2021/05/14 09:03:57;;;;;;;79.10;13.37;;;;;;;;;;4969523;28;20191;-82
2021/05/14 09:06:29;;;;;;;73.73;12.77;;;;;;;;;;4955246;28;20176;-82
2021/05/14 09:08:56;;;;;;;76.77;14.03;;;;;;;;;;4970079;28;20180;-81
2021/05/14 09:11:32;;;;;;;58.10;13.00;;;;;;;;;;4962415;28;20230;-81
2021/05/14 09:13:58;;;;;;;54.30;10.48;;;;;;;;;;4979883;28;21820;-82
2021/05/14 09:16:37;;;;;;;56.43;10.93;;;;;;;;;;4965271;28;20192;-81
2021/05/14 09:19:03;;;;;;;38.33;8.53;;;;;;;;;;4968394;28;20183;-81
2021/05/14 09:21:29;;;;;;;50.60;9.53;;;;;;;;;;4982354;28;20180;-81
2021/05/14 09:23:56;;;;;;;29.67;9.50;;;;;;;;;;4967911;28;20275;-81
2021/05/14 09:26:27;;;;;;;51.87;9.90;;;;;;;;;;4982329;28;20187;-81
2021/05/14 09:28:53;;;;;;;39.73;7.27;;;;;;;;;;4963594;28;20267;-82
2021/05/14 09:31:22;;;;;;;29.40;6.30;;;;;;;;;;4967276;28;20214;-81
2021/05/14 09:33:52;;;;;;;25.87;6.17;;;;;;;;;;4968888;28;20207;-81
2021/05/14 09:36:23;;;;;;;33.30;7.90;;;;;;;;;;4969352;28;20164;-81
2021/05/14 09:38:54;;;;;;;24.77;5.60;;;;;;;;;;4969659;28;20172;-82
2021/05/14 09:41:28;;;;;;;15.47;5.27;;;;;;;;;;4969608;28;20172;-82
2021/05/14 09:43:58;;;;;;;17.17;5.07;;;;;;;;;;4969544;28;20193;-81
2021/05/14 09:46:32;;;;;;;21.93;6.27;;;;;;;;;;4964231;28;20241;-82
2021/05/14 09:49:07;;;;;;;13.60;5.20;;;;;;;;;;4970900;28;20670;-82
2021/05/14 09:51:34;;;;;;;14.03;5.40;;;;;;;;;;4951143;28;20253;-81
2021/05/14 09:54:20;;;;;;;14.47;5.90;;;;;;;;;;4962843;28;20709;-82
2021/05/14 09:57:04;;;;;;;17.33;5.30;;;;;;;;;;4966079;28;20191;-81
2021/05/14 09:59:31;;;;;;;6.37;4.13;;;;;;;;;;4989255;28;20279;-81
2021/05/14 10:01:58;;;;;;;13.57;5.33;;;;;;;;;;4959976;28;20208;-81
2021/05/14 10:04:25;;;;;;;9.37;5.80;;;;;;;;;;4973117;28;20595;-82
2021/05/14 10:06:51;;;;;;;9.67;4.27;;;;;;;;;;4969779;28;20188;-81
2021/05/14 10:09:19;;;;;;;9.73;4.27;;;;;;;;;;4973692;28;20191;-81
2021/05/14 10:11:46;;;;;;;8.50;4.33;;;;;;;;;;4968553;28;20187;-80
2021/05/14 10:14:12;;;;;;;7.23;4.00;;;;;;;;;;4969821;28;20372;-80
2021/05/14 10:16:38;;;;;;;6.07;3.90;;;;;;;;;;5007517;28;20172;-80
2021/05/14 10:19:05;;;;;;;9.63;3.70;;;;;;;;;;5011790;28;20172;-80
2021/05/14 10:21:33;;;;;;;7.93;3.77;;;;;;;;;;4979209;28;20625;-80
2021/05/14 10:23:59;;;;;;;8.37;3.60;;;;;;;;;;4968350;28;20183;-79
2021/05/14 10:26:36;;;;;;;5.23;3.83;;;;;;;;;;4983392;28;20237;-80
2021/05/14 10:29:10;;;;;;;6.60;3.20;;;;;;;;;;4969896;28;20226;-79
2021/05/14 10:31:43;;;;;;;5.07;2.67;;;;;;;;;;4963194;28;20222;-85
2021/05/14 10:34:16;;;;;;;4.00;2.80;;;;;;;;;;4972656;28;20208;-81
2021/05/14 10:36:46;;;;;;;7.07;3.50;;;;;;;;;;4973735;28;20634;-80
2021/05/14 10:39:16;;;;;;;4.70;3.37;;;;;;;;;;4993766;28;20180;-81
2021/05/14 10:41:50;;;;;;;3.40;3.03;;;;;;;;;;4975227;28;20286;-81
2021/05/14 10:44:16;;;;;;;7.40;2.90;;;;;;;;;;4971302;28;20183;-80
2021/05/14 10:46:42;;;;;;;2.50;2.30;;;;;;;;;;4960772;28;20211;-85
2021/05/14 10:49:10;;;;;;;3.17;2.87;;;;;;;;;;4967080;28;20516;-78
2021/05/14 10:51:42;;;;;;;3.07;2.10;;;;;;;;;;4957348;28;20191;-77
2021/05/14 10:54:08;;;;;;;4.50;2.13;;;;;;;;;;4973070;28;20212;-78
2021/05/14 10:56:48;;;;;;;3.00;1.93;;;;;;;;;;4976643;28;20211;-80
2021/05/14 10:59:14;;;;;;;2.27;1.80;;;;;;;;;;4972652;28;20227;-81
2021/05/14 11:01:40;;;;;;;2.47;2.00;;;;;;;;;;4972132;28;20529;-81
2021/05/14 11:04:15;;;;;;;2.30;1.80;;;;;;;;;;4971404;28;20349;-80
2021/05/14 11:06:43;;;;;;;2.00;1.60;;;;;;;;;;4972008;28;20180;-80
2021/05/14 11:09:10;;;;;;;2.90;1.70;;;;;;;;;;4973308;28;20713;-80
2021/05/14 11:11:53;;;;;;;1.90;1.63;;;;;;;;;;5048590;28;20184;-80
2021/05/14 11:14:19;;;;;;;3.13;2.20;;;;;;;;;;5074834;28;20717;-80
2021/05/14 11:16:46;;;;;;;4.33;1.70;;;;;;;;;;5074875;28;20576;-81
2021/05/14 11:19:12;;;;;;;2.60;2.00;;;;;;;;;;4974592;28;20263;-80
2021/05/14 11:21:58;;;;;;;2.73;1.60;;;;;;;;;;4991823;28;20175;-80
2021/05/14 11:24:28;;;;;;;3.43;1.80;;;;;;;;;;4983221;28;20187;-81
2021/05/14 11:27:01;;;;;;;4.10;1.63;;;;;;;;;;4972710;28;20184;-80
2021/05/14 11:29:51;;;;;;;2.07;1.77;;;;;;;;;;4969644;28;20615;-81
2021/05/14 11:32:17;;;;;;;2.40;1.90;;;;;;;;;;4978402;28;20210;-80
2021/05/14 11:34:56;;;;;;;2.33;1.90;;;;;;;;;;4979374;28;20554;-81
2021/05/14 11:37:23;;;;;;;2.00;1.80;;;;;;;;;;4978197;28;20712;-80
2021/05/14 11:39:50;;;;;;;2.90;2.00;;;;;;;;;;4976795;28;20240;-80
2021/05/14 11:42:16;;;;;;;4.23;1.87;;;;;;;;;;4975116;28;20185;-80
2021/05/14 11:44:58;;;;;;;2.13;1.50;;;;;;;;;;4973171;28;20287;-80
2021/05/14 11:47:24;;;;;;;1.80;1.57;;;;;;;;;;4972444;28;20221;-81
2021/05/14 11:49:50;;;;;;;4.70;1.90;;;;;;;;;;4972990;28;20196;-80
2021/05/14 11:52:30;;;;;;;1.70;1.60;;;;;;;;;;4974913;28;20274;-80
2021/05/14 11:55:07;;;;;;;2.47;2.10;;;;;;;;;;4973408;28;20738;-81
2021/05/14 11:57:33;;;;;;;3.63;1.83;;;;;;;;;;4969645;28;20192;-82
2021/05/14 12:00:00;;;;;;;2.00;1.70;;;;;;;;;;4969590;28;20207;-80
2021/05/14 12:02:32;;;;;;;3.47;2.10;;;;;;;;;;4973822;28;20245;-80
2021/05/14 12:04:59;;;;;;;2.47;2.10;;;;;;;;;;4968350;28;20206;-81
2021/05/14 12:07:25;;;;;;;2.50;1.77;;;;;;;;;;4972106;28;20599;-81
2021/05/14 12:09:58;;;;;;;2.13;1.90;;;;;;;;;;4983090;28;20699;-81
2021/05/14 12:12:24;;;;;;;2.50;1.60;;;;;;;;;;4994809;28;20202;-81
2021/05/14 12:14:50;;;;;;;3.67;2.17;;;;;;;;;;4974068;28;20218;-81
2021/05/14 12:17:16;;;;;;;1.70;1.60;;;;;;;;;;4970951;28;20183;-80
2021/05/14 12:19:46;;;;;;;2.00;1.70;;;;;;;;;;4978810;28;20206;-80
2021/05/14 12:22:12;;;;;;;3.03;2.07;;;;;;;;;;4989366;28;20183;-80
2021/05/14 12:24:40;;;;;;;1.80;1.50;;;;;;;;;;4983089;28;20195;-80
2021/05/14 12:27:09;;;;;;;2.30;1.80;;;;;;;;;;4967056;28;20314;-81
2021/05/14 12:29:36;;;;;;;1.90;1.80;;;;;;;;;;4977740;28;20592;-81
2021/05/14 12:32:03;;;;;;;3.77;2.47;;;;;;;;;;4973603;28;20183;-80
2021/05/14 12:34:29;;;;;;;2.20;2.03;;;;;;;;;;4984816;28;20277;-81
2021/05/14 12:36:59;;;;;;;1.80;1.70;;;;;;;;;;4968503;28;20695;-80
2021/05/14 12:39:25;;;;;;;3.40;2.00;;;;;;;;;;4970470;28;20180;-80
2021/05/14 12:41:59;;;;;;;3.50;1.97;;;;;;;;;;4972131;28;20184;-80
2021/05/14 12:44:28;;;;;;;1.70;1.50;;;;;;;;;;4974800;28;20273;-80
2021/05/14 12:47:00;;;;;;;2.70;1.80;;;;;;;;;;4990932;28;20218;-81
2021/05/14 12:49:45;;;;;;;3.63;1.83;;;;;;;;;;4970593;28;20179;-80
2021/05/14 12:52:22;;;;;;;2.70;2.07;;;;;;;;;;4969472;28;20214;-80
2021/05/14 12:55:07;;;;;;;2.97;1.97;;;;;;;;;;4971489;28;20211;-80
2021/05/14 12:57:41;;;;;;;1.90;1.70;;;;;;;;;;4971709;28;20160;-81
2021/05/14 13:00:14;;;;;;;3.13;2.07;;;;;;;;;;4972005;28;20168;-80
2021/05/14 13:02:40;;;;;;;2.53;2.13;;;;;;;;;;4969598;28;20249;-80
2021/05/14 13:05:08;;;;;;;3.97;2.30;;;;;;;;;;4980951;28;20188;-80
2021/05/14 13:07:34;;;;;;;3.33;2.27;;;;;;;;;;4959716;28;20188;-80
2021/05/14 13:10:00;;;;;;;2.97;2.00;;;;;;;;;;4969926;28;20772;-80
2021/05/14 13:12:27;;;;;;;2.67;2.03;;;;;;;;;;4970423;28;20191;-80
2021/05/14 13:14:53;;;;;;;1.80;1.70;;;;;;;;;;4969761;28;20293;-80
2021/05/14 13:17:19;;;;;;;3.27;2.10;;;;;;;;;;4969226;28;20556;-80
2021/05/14 13:19:46;;;;;;;3.43;2.50;;;;;;;;;;4972241;28;20207;-80
2021/05/14 13:22:12;;;;;;;3.80;2.00;;;;;;;;;;4963386;28;20190;-80
2021/05/14 13:24:38;;;;;;;2.03;1.77;;;;;;;;;;4984152;28;20191;-80
2021/05/14 13:27:04;;;;;;;3.47;2.00;;;;;;;;;;4969069;28;20184;-81
2021/05/14 13:29:32;;;;;;;4.60;2.27;;;;;;;;;;4969456;28;20195;-80
2021/05/14 13:32:00;;;;;;;2.40;2.00;;;;;;;;;;4969823;28;20185;-80
2021/05/14 13:34:26;;;;;;;3.67;2.40;;;;;;;;;;4973891;28;20208;-80
2021/05/14 13:36:53;;;;;;;2.40;2.20;;;;;;;;;;4987199;28;20612;-80
2021/05/14 13:39:19;;;;;;;5.10;2.27;;;;;;;;;;4987305;28;20172;-80
2021/05/14 13:41:45;;;;;;;4.23;2.10;;;;;;;;;;4969643;28;20199;-80
2021/05/14 13:44:11;;;;;;;3.00;2.70;;;;;;;;;;4963342;28;20435;-80
2021/05/14 13:46:37;;;;;;;2.50;2.20;;;;;;;;;;4969828;28;20201;-80
2021/05/14 13:49:04;;;;;;;2.83;2.47;;;;;;;;;;4972686;28;20628;-80
2021/05/14 13:51:31;;;;;;;2.73;2.10;;;;;;;;;;4950838;28;20217;-80
2021/05/14 13:53:58;;;;;;;2.17;1.73;;;;;;;;;;4950563;28;20409;-80
2021/05/14 13:56:24;;;;;;;3.50;2.33;;;;;;;;;;4939046;28;20189;-80
2021/05/14 13:58:50;;;;;;;2.33;2.10;;;;;;;;;;4953918;28;20183;-80
2021/05/14 14:01:16;;;;;;;2.93;2.17;;;;;;;;;;4985226;28;20190;-81
2021/05/14 14:03:42;;;;;;;6.73;3.57;;;;;;;;;;4967717;28;20176;-78
2021/05/14 14:06:08;;;;;;;3.60;3.13;;;;;;;;;;4966705;28;20303;-78
2021/05/14 14:08:34;;;;;;;3.43;2.63;;;;;;;;;;4964550;28;20287;-78
2021/05/14 14:11:00;;;;;;;5.03;2.63;;;;;;;;;;4963372;28;20192;-78
2021/05/14 14:13:26;;;;;;;2.73;2.00;;;;;;;;;;4967145;28;20228;-78
2021/05/14 14:15:54;;;;;;;3.50;2.80;;;;;;;;;;4967009;28;20208;-78
2021/05/14 14:18:20;;;;;;;3.10;2.80;;;;;;;;;;4967418;28;20226;-78
2021/05/14 14:20:46;;;;;;;3.23;2.27;;;;;;;;;;4964908;28;20767;-78
2021/05/14 14:23:12;;;;;;;3.80;2.77;;;;;;;;;;4966307;28;20250;-79
2021/05/14 14:25:38;;;;;;;2.40;2.20;;;;;;;;;;4969963;28;20285;-80
2021/05/14 14:28:05;;;;;;;3.30;2.55;;;;;;;;;;4970120;28;20931;-80
2021/05/14 14:30:31;;;;;;;2.90;2.40;;;;;;;;;;4971420;28;20198;-80
2021/05/14 14:32:58;;;;;;;2.43;2.23;;;;;;;;;;4971098;28;20177;-79
2021/05/14 14:35:24;;;;;;;4.03;2.07;;;;;;;;;;4969886;28;20244;-78
2021/05/14 14:37:50;;;;;;;2.33;1.93;;;;;;;;;;4969851;28;20207;-79
2021/05/14 14:40:18;;;;;;;5.27;3.00;;;;;;;;;;4977200;28;20196;-81
2021/05/14 14:42:44;;;;;;;4.23;3.30;;;;;;;;;;4969217;28;20176;-81
2021/05/14 14:45:11;;;;;;;4.57;3.10;;;;;;;;;;4970919;28;20199;-81
2021/05/14 14:47:37;;;;;;;3.07;2.77;;;;;;;;;;4970010;28;20181;-81